^^
Weather Station Historical Data
 
Daily Summary for September 17, 2019 Units:  English    Metric   Both
Daily Weekly Monthly Yearly Custom
  Current: High: Low: Average:
Temperature: 74.9 °F 76.2 °F 74.9 °F 75.4 °F
Dew Point: 72.7 °F 73 °F 72.6 °F 72.8 °F
Humidity: 93% 93% 89.1% 92%
Wind Speed: 1mph 1mph 0mph 0.1mph
Wind Gust: 1mph 1mph - -
WindENE - - ENE
Pressure: 29.89 in 29.94 in 29.88 in -
Precipitation: 0.00 in      
Historical Graphs
 
 
Tabular Data for September 17, 2019
Time Temperature Dew Point Pressure Wind Wind Speed Wind Gust Humidity Rainfall Rate (Hourly) solar
00:04 76.2 °F 72.7 °F 29.90 in Calm     89.1% 0.00 in 0 W/m2
00:09 76.1 °F 72.9 °F 29.94 in Calm     89.7% 0.00 in 0 W/m2
00:14 76 °F 73 °F 29.94 in Calm     90.3% 0.00 in 0 W/m2
00:19 75.8 °F 73 °F 29.89 in Calm     91% 0.00 in 0 W/m2
00:24 75.8 °F 73 °F 29.89 in Calm     91% 0.00 in 0 W/m2
00:29 75.7 °F 72.8 °F 29.94 in Calm     90.8% 0.00 in 0 W/m2
00:34 75.5 °F 72.7 °F 29.89 in Calm     91% 0.00 in 0 W/m2
00:39 75.4 °F 72.6 °F 29.89 in Calm     91% 0.00 in 0 W/m2
00:44 75.4 °F 72.6 °F 29.89 in ENE 0.2 mph 1 mph 91% 0.00 in 0 W/m2
00:49 75.4 °F 72.6 °F 29.89 in Calm     91% 0.00 in 0 W/m2
00:54 75.5 °F 72.7 °F 29.89 in Calm     91% 0.00 in 0 W/m2
00:59 75.5 °F 72.9 °F 29.89 in Calm     91.7% 0.00 in 0 W/m2
01:04 75.4 °F 72.9 °F 29.89 in Calm     92% 0.00 in 0 W/m2
01:09 75.3 °F 72.8 °F 29.88 in Calm     92% 0.00 in 0 W/m2
01:14 75.1 °F 72.7 °F 29.89 in ENE 0.1 mph   92.3% 0.00 in 0 W/m2
01:19 75.1 °F 72.9 °F 29.89 in ENE 0.5 mph 1 mph 93% 0.00 in 0 W/m2
01:24 75 °F 72.8 °F 29.89 in Calm   1 mph 93% 0.00 in 0 W/m2
01:29 75 °F 72.8 °F 29.89 in Calm     93% 0.00 in 0 W/m2
01:34 75 °F 72.8 °F 29.89 in Calm     93% 0.00 in 0 W/m2
01:39 74.9 °F 72.7 °F 29.89 in ENE 0.7 mph 1 mph 93% 0.00 in 0 W/m2
01:44 75 °F 72.8 °F 29.89 in Calm   1 mph 93% 0.00 in 0 W/m2
01:49 75 °F 72.8 °F 29.89 in ENE 0.1 mph   93% 0.00 in 0 W/m2
01:50 74.9 °F 72.7 °F 29.89 in ENE 1 mph 1 mph 93% 0.00 in 0 W/m2
Lake Mary, FL, USA
Compliments of Weather Underground - 1 mb